Data for 04/13/2018

Time Sea-Level Adjusted Pressure Absolute Pressure Temperature Relative Humidity Dew Point   
(mb) (inHg) (mb) (inHg) (C) (F) (%) (C) (F)
00:05 1014 29.94 844 24.92 -2.2 28.1 93 -3.1 26.4
00:10 1015 29.97 844 24.92 -2.2 28.1 93 -3.1 26.5
00:15 1015 29.97 844 24.92 -2.2 28.1 93 -3.1 26.4
00:20 1015 29.97 844 24.92 -2.1 28.1 93 -3.1 26.4
00:25 1015 29.97 844 24.92 -2.2 28.1 93 -3.1 26.4
00:30 1015 29.97 844 24.92 -2.2 28.1 93 -3.1 26.4
00:35 1015 29.97 844 24.92 -2.2 28 93 -3.1 26.4
00:40 1015 29.97 844 24.92 -2.2 28 93 -3.1 26.4
00:45 1015 29.97 844 24.92 -2.2 28.1 93 -3.1 26.4
00:50 1015 29.97 844 24.92 -2.2 28.1 93 -3.1 26.4
00:55 1015 29.97 844 24.92 -2.1 28.1 93 -3.1 26.4
01:00 1015 29.97 844 24.92 -2.2 28.1 93 -3.1 26.4
01:05 1015 29.97 844 24.92 -2.2 28.1 93 -3.1 26.4
01:10 1015 29.97 844 24.92 -2.2 28.1 93 -3.1 26.4
01:15 1015 29.97 845 24.95 -2.2 28.1 93 -3.1 26.4
01:20 1015 29.97 845 24.95 -2.2 28.1 93 -3.1 26.4
01:25 1015 29.97 845 24.95 -2.1 28.1 93 -3.1 26.4
01:30 1016 30 845 24.95 -2.2 28.1 93 -3.1 26.4
01:35 1016 30 845 24.95 -2.2 28.1 93 -3.1 26.4
01:40 1016 30 845 24.95 -2.2 28.1 93 -3.1 26.4
01:45 1016 30 845 24.95 -2.2 28.1 94 -3 26.5
01:50 1016 30 845 24.95 -2.2 28.1 94 -3.1 26.4
01:55 1016 30 845 24.95 -2.2 28 93 -3.2 26.3
02:00 1016 30 845 24.95 -2.3 27.9 93 -3.2 26.2
02:05 1016 30 845 24.95 -2.3 27.9 93 -3.2 26.3
02:10 1016 30 845 24.95 -2.2 28 93 -3.1 26.3
02:15 1016 30 845 24.95 -2.2 28 93 -3.2 26.3
02:20 1016 30 845 24.95 -2.2 28 93 -3.2 26.2
02:25 1016 30 845 24.95 -2.3 27.9 93 -3.2 26.2
02:30 1016 30 845 24.95 -2.2 28 93 -3.2 26.2
02:35 1016 30 845 24.95 -2.2 28 93 -3.2 26.2
02:40 1016 30 845 24.95 -2.3 27.9 93 -3.3 26.1
02:45 1016 30 845 24.95 -2.3 27.9 93 -3.3 26.1
02:50 1016 30 845 24.95 -2.2 28 93 -3.3 26.1
02:55 1016 30 845 24.95 -2.3 27.9 93 -3.3 26.1
03:00 1016 30 845 24.95 -2.3 28 93 -3.3 26.1
03:05 1016 30 845 24.95 -2.2 28 92 -3.3 26.1
03:10 1016 30 845 24.95 -2.2 28 92 -3.3 26
03:15 1016 30 845 24.95 -2.2 28 93 -3.3 26.1
03:20 1016 30 845 24.95 -2.3 27.9 92 -3.3 26
03:25 1016 30 845 24.95 -2.3 27.9 92 -3.4 26
03:30 1016 30 845 24.95 -2.3 27.9 93 -3.4 26
03:35 1016 30 845 24.95 -2.3 27.8 93 -3.4 26
03:40 1016 30 845 24.95 -2.3 27.8 92 -3.4 25.8
03:45 1016 30 845 24.95 -2.4 27.7 93 -3.4 25.8
03:50 1016 30 846 24.98 -2.3 27.8 93 -3.4 25.9
03:55 1016 30 846 24.98 -2.3 27.8 93 -3.3 26
04:00 1016 30 846 24.98 -2.3 27.8 93 -3.3 26
04:05 1016 30 846 24.98 -2.4 27.8 93 -3.4 25.9
04:10 1016 30 846 24.98 -2.3 27.8 93 -3.3 26
04:15 1016 30 846 24.98 -2.3 27.9 93 -3.2 26.2
04:20 1017 30.03 846 24.98 -2.3 27.9 93 -3.3 26.1
04:25 1017 30.03 846 24.98 -2.3 27.8 93 -3.3 26.1
04:30 1017 30.03 846 24.98 -2.3 27.8 93 -3.3 26
04:35 1017 30.03 846 24.98 -2.3 27.8 93 -3.3 26
04:40 1017 30.03 846 24.98 -2.3 27.8 93 -3.3 26
04:45 1017 30.03 846 24.98 -2.3 27.8 93 -3.3 26.1
04:50 1017 30.03 846 24.98 -2.3 27.9 93 -3.2 26.2
04:55 1017 30.03 846 24.98 -2.3 27.9 93 -3.3 26.1
05:00 1017 30.03 846 24.98 -2.3 27.8 93 -3.3 26
05:05 1017 30.03 846 24.98 -2.3 27.8 93 -3.3 26
05:10 1017 30.03 847 25.01 -2.3 27.9 93 -3.3 26
05:15 1017 30.03 847 25.01 -2.2 28 92 -3.3 26
05:20 1017 30.03 847 25.01 -2.3 27.9 92 -3.4 25.9
05:25 1018 30.06 847 25.01 -2.3 27.9 92 -3.4 25.8
05:30 1018 30.06 847 25.01 -2.3 27.9 92 -3.4 25.8
05:35 1018 30.06 847 25.01 -2.3 27.9 92 -3.4 25.8
05:40 1018 30.06 847 25.01 -2.3 27.9 92 -3.4 25.9
05:45 1018 30.06 847 25.01 -2.3 27.9 92 -3.4 25.9
05:50 1018 30.06 847 25.01 -2.3 27.9 92 -3.4 25.9
05:55 1018 30.06 847 25.01 -2.3 27.9 92 -3.5 25.8
06:00 1018 30.06 847 25.01 -2.3 27.9 91 -3.5 25.8
06:05 1018 30.06 847 25.01 -2.2 28 92 -3.4 25.9
06:10 1018 30.06 847 25.01 -2.2 28.1 92 -3.3 26
06:15 1018 30.06 848 25.04 -2.1 28.1 92 -3.3 26
06:20 1018 30.06 848 25.04 -2.1 28.2 91 -3.4 25.9
06:25 1018 30.06 848 25.04 -2.1 28.3 91 -3.4 25.8
06:30 1018 30.06 848 25.04 -2.1 28.3 90 -3.6 25.6
06:35 1018 30.06 848 25.04 -2 28.4 89 -3.6 25.5
06:40 1018 30.06 848 25.04 -2 28.4 88 -3.7 25.3
06:45 1019 30.09 848 25.04 -1.9 28.6 87 -3.8 25.1
06:50 1019 30.09 848 25.04 -1.8 28.7 87 -3.8 25.2
06:55 1019 30.09 848 25.04 -1.8 28.7 86 -3.9 25
07:00 1019 30.09 848 25.04 -1.8 28.7 83 -4.3 24.3
07:05 1019 30.09 848 25.04 -1.7 29 81 -4.5 23.9
07:10 1019 30.09 848 25.04 -1.6 29.1 80 -4.6 23.7
07:15 1019 30.09 848 25.04 -1.5 29.3 80 -4.6 23.7
07:20 1019 30.09 848 25.04 -1.5 29.2 80 -4.6 23.7
07:25 1019 30.09 848 25.04 -1.5 29.3 81 -4.4 24.2
07:30 1019 30.09 848 25.04 -1.5 29.3 82 -4.2 24.4
07:35 1019 30.09 849 25.07 -1.5 29.3 85 -3.7 25.3
07:40 1020 30.12 849 25.07 -1.6 29.2 87 -3.5 25.8
07:45 1020 30.12 849 25.07 -1.5 29.4 87 -3.3 26
07:50 1020 30.12 849 25.07 -1.4 29.5 87 -3.3 26
07:55 1020 30.12 849 25.07 -1.3 29.7 81 -4.1 24.6
08:00 1020 30.12 849 25.07 -1.2 29.8 82 -4 24.9
08:05 1020 30.12 849 25.07 -1.2 29.9 81 -4 24.8
08:10 1020 30.12 849 25.07 -1.2 29.9 80 -4.1 24.5
08:15 1020 30.12 849 25.07 -1.1 30 82 -3.9 25
08:20 1020 30.12 849 25.07 -1 30.2 81 -3.9 25.1
08:25 1020 30.12 849 25.07 -0.9 30.4 79 -4 24.8
08:30 1020 30.12 850 25.1 -0.8 30.5 79 -4 24.8
08:35 1021 30.15 850 25.1 -0.8 30.5 78 -4.2 24.4
08:40 1021 30.15 850 25.1 -0.8 30.5 76 -4.5 23.8
08:45 1021 30.15 850 25.1 -0.8 30.5 77 -4.3 24.2
08:50 1021 30.15 850 25.1 -0.7 30.7 77 -4.2 24.4
08:55 1021 30.15 850 25.1 -0.6 30.9 76 -4.4 24.2
09:00 1021 30.15 850 25.1 -0.5 31.1 76 -4.3 24.3
09:05 1021 30.15 850 25.1 -0.4 31.2 75 -4.3 24.3
09:10 1021 30.15 850 25.1 -0.3 31.5 75 -4.2 24.4
09:15 1021 30.15 850 25.1 -0.2 31.6 75 -4.1 24.6
09:20 1021 30.15 850 25.1 -0.2 31.6 75 -4.1 24.6
09:25 1021 30.15 850 25.1 -0.1 31.8 75 -4 24.8
09:30 1021 30.15 850 25.1 0.1 32.2 76 -3.6 25.5
09:35 1021 30.15 851 25.13 0.2 32.4 76 -3.5 25.8
09:40 1021 30.15 851 25.13 0.2 32.4 73 -4.1 24.6
09:45 1022 30.18 851 25.13 0.3 32.5 74 -3.9 25
09:50 1022 30.18 851 25.13 0.4 32.7 76 -3.4 25.8
09:55 1022 30.18 851 25.13 0.5 32.9 74 -3.7 25.4
10:00 1022 30.18 851 25.13 0.5 33 72 -4 24.9
10:05 1022 30.18 851 25.13 0.6 33.1 74 -3.5 25.7
10:10 1022 30.18 851 25.13 0.8 33.5 74 -3.3 26
10:15 1022 30.18 851 25.13 0.9 33.6 74 -3.2 26.2
10:20 1022 30.18 851 25.13 1 33.8 72 -3.5 25.7
10:25 1022 30.18 851 25.13 1.1 34 73 -3.1 26.3
10:30 1022 30.18 851 25.13 1.1 33.9 68 -4.1 24.6
10:35 1022 30.18 851 25.13 0.6 33.1 68 -4.5 23.8
10:40 1022 30.18 851 25.13 0.5 32.9 67 -4.9 23.2
10:45 1022 30.18 851 25.13 0.6 33.1 69 -4.5 24
10:50 1022 30.18 852 25.16 0.9 33.7 65 -4.8 23.3
10:55 1022 30.18 852 25.16 1 33.8 63 -5.3 22.5
11:00 1022 30.18 852 25.16 1 33.8 63 -5.3 22.4
11:05 1023 30.21 852 25.16 1.1 34.1 64 -4.8 23.3
11:10 1023 30.21 852 25.16 1.7 35 61 -5 23.1
11:15 1023 30.21 852 25.16 1.7 35 62 -4.8 23.3
11:20 1023 30.21 852 25.16 1.6 35 60 -5.2 22.7
11:25 1023 30.21 852 25.16 1.9 35.4 60 -5.1 22.8
11:30 1023 30.21 852 25.16 2.3 36.2 58 -5.1 22.9
11:35 1023 30.21 852 25.16 2.9 37.2 53 -5.7 21.8
11:40 1023 30.21 852 25.16 2.9 37.2 56 -5.1 22.9
11:45 1023 30.21 852 25.16 3 37.4 53 -5.6 21.8
11:50 1023 30.21 852 25.16 2.9 37.3 51 -6.2 20.9
11:55 1023 30.21 852 25.16 2.7 36.8 51 -6.5 20.4
12:00 1023 30.21 852 25.16 2.8 37 52 -6.2 20.8
12:05 1023 30.21 852 25.16 3.2 37.7 50 -6.3 20.6
12:10 1023 30.21 853 25.19 3.2 37.7 49 -6.5 20.3
12:15 1023 30.21 853 25.19 3.1 37.5 48 -6.8 19.7
12:20 1023 30.21 853 25.19 2.8 37 51 -6.5 20.3
12:25 1023 30.21 853 25.19 3.1 37.5 51 -6.1 21
12:30 1023 30.21 853 25.19 3.2 37.7 49 -6.5 20.3
12:35 1024 30.24 853 25.19 3.1 37.5 51 -6.2 20.9
12:40 1024 30.24 853 25.19 3.2 37.8 49 -6.5 20.3
12:45 1024 30.24 853 25.19 3.3 38 48 -6.7 20
12:50 1024 30.24 853 25.19 3.6 38.4 48 -6.6 20.2
12:55 1024 30.24 853 25.19 3.5 38.3 46 -7.2 19.1
13:00 1024 30.24 853 25.19 3.2 37.7 49 -6.6 20.1
13:05 1024 30.24 853 25.19 3.2 37.7 49 -6.6 20.1
13:10 1024 30.24 853 25.19 3.2 37.7 49 -6.5 20.3
13:15 1024 30.24 853 25.19 3.2 37.7 46 -7.3 18.9
13:20 1024 30.24 853 25.19 3.1 37.6 48 -6.7 19.9
13:25 1024 30.24 853 25.19 3.5 38.3 48 -6.4 20.4
13:30 1024 30.24 853 25.19 4 39.2 47 -6.5 20.4
13:35 1024 30.24 853 25.19 4.4 39.8 47 -5.9 21.3
13:40 1024 30.24 853 25.19 4.9 40.9 42 -6.9 19.5
13:45 1024 30.24 853 25.19 5.3 41.5 42 -6.7 19.9
13:50 1024 30.24 853 25.19 5.1 41.2 43 -6.4 20.4
13:55 1024 30.24 853 25.19 5.1 41.3 43 -6.5 20.2
14:00 1024 30.24 853 25.19 5.4 41.7 43 -6.3 20.6
14:05 1024 30.24 853 25.19 5.6 42.2 45 -5.3 22.5
14:10 1024 30.24 853 25.19 5.6 42 43 -5.9 21.4
14:15 1024 30.24 853 25.19 5.6 42 41 -6.5 20.2
14:20 1024 30.24 853 25.19 4.9 40.9 44 -6.4 20.5
14:25 1024 30.24 853 25.19 5.6 42.2 42 -6.2 20.9
14:30 1024 30.24 853 25.19 5.6 42 45 -5.5 22.2
14:35 1024 30.24 853 25.19 5.2 41.3 47 -5.3 22.5
14:40 1024 30.24 853 25.19 6 42.8 44 -5.4 22.2
14:45 1024 30.24 853 25.19 5.5 42 42 -6.3 20.6
14:50 1024 30.24 853 25.19 4.6 40.3 41 -7.4 18.7
14:55 1024 30.24 853 25.19 4.5 40.1 46 -6.1 21
15:00 1024 30.24 853 25.19 4.9 40.8 47 -5.5 22.1
15:05 1024 30.24 853 25.19 4.7 40.5 47 -5.7 21.7
15:10 1024 30.24 853 25.19 4.5 40 47 -5.8 21.5
15:15 1024 30.24 853 25.19 4.7 40.4 46 -5.9 21.4
15:20 1024 30.24 853 25.19 4.1 39.3 45 -6.9 19.6
15:25 1024 30.24 853 25.19 4 39.3 49 -5.8 21.5
15:30 1024 30.24 853 25.19 4.3 39.7 47 -6 21.1
15:35 1024 30.24 853 25.19 4.2 39.5 48 -5.8 21.6
15:40 1024 30.24 853 25.19 4.9 40.8 46 -5.8 21.6
15:45 1024 30.24 853 25.19 5.2 41.3 44 -6.2 20.8
15:50 1024 30.24 853 25.19 4.9 40.8 47 -5.6 21.9
15:55 1024 30.24 853 25.19 5 40.9 39 -8 17.6
16:00 1024 30.24 853 25.19 5.9 42.6 40 -6.9 19.6
16:05 1024 30.24 853 25.19 6.7 44.1 38 -6.7 19.9
16:10 1024 30.24 853 25.19 6.4 43.6 39 -6.7 20
16:15 1024 30.24 853 25.19 6.1 42.9 40 -6.6 20.2
16:20 1024 30.24 853 25.19 5.9 42.7 42 -5.9 21.4
16:25 1024 30.24 853 25.19 5.9 42.7 40 -6.6 20.2
16:30 1024 30.24 853 25.19 5.4 41.8 40 -7.2 19.1
16:35 1024 30.24 853 25.19 5 40.9 39 -7.7 18.1
16:40 1024 30.24 853 25.19 5.1 41.3 42 -6.8 19.7
16:45 1024 30.24 853 25.19 6.1 42.9 39 -6.9 19.6
16:50 1024 30.24 853 25.19 6.2 43.1 37 -7.3 18.9
16:55 1024 30.24 853 25.19 6.2 43.2 38 -7.1 19.3
17:00 1024 30.24 853 25.19 5.5 41.9 39 -7.3 18.8
17:05 1024 30.24 853 25.19 4.9 40.8 42 -6.9 19.7
17:10 1024 30.24 853 25.19 4.9 40.9 43 -6.8 19.8
17:15 1024 30.24 853 25.19 5.2 41.3 40 -7.5 18.5
17:20 1024 30.24 853 25.19 5.6 42 38 -7.6 18.3
17:25 1024 30.24 853 25.19 5.8 42.4 39 -7.2 19
17:30 1024 30.24 853 25.19 5.9 42.7 38 -7.4 18.7
17:35 1024 30.24 853 25.19 6.1 43 37 -7.5 18.5
17:40 1024 30.24 853 25.19 6.7 44 36 -7.2 19.1
17:45 1024 30.24 853 25.19 7.3 45.1 35 -7 19.4
17:50 1024 30.24 853 25.19 7.2 45 38 -6.1 21
17:55 1024 30.24 853 25.19 5.9 42.6 40 -6.7 20
18:00 1024 30.24 853 25.19 5.6 42 40 -7.1 19.1
18:05 1024 30.24 853 25.19 5.3 41.6 41 -6.8 19.8
18:10 1024 30.24 853 25.19 5.2 41.3 42 -6.7 19.9
18:15 1024 30.24 853 25.19 5.5 41.8 41 -6.8 19.7
18:20 1024 30.24 854 25.22 6 42.7 37 -7.7 18.2
18:25 1024 30.24 854 25.22 5.8 42.5 35 -8.3 17
18:30 1024 30.24 853 25.19 5.4 41.7 34 -9.4 15
18:35 1024 30.24 853 25.19 5.2 41.4 36 -8.8 16.1
18:40 1024 30.24 853 25.19 5.2 41.3 39 -7.8 18
18:45 1024 30.24 854 25.22 5.1 41.2 40 -7.5 18.4
18:50 1024 30.24 854 25.22 5.4 41.7 41 -6.9 19.5
18:55 1024 30.24 854 25.22 5.6 42 39 -7.2 19
19:00 1024 30.24 854 25.22 5.5 41.9 39 -7.5 18.5
19:05 1025 30.27 854 25.22 5.4 41.7 38 -7.7 18.1
19:10 1025 30.27 854 25.22 5.4 41.8 37 -8 17.6
19:15 1025 30.27 854 25.22 5.5 41.8 38 -7.9 17.7
19:20 1025 30.27 854 25.22 5.3 41.5 40 -7.3 18.8
19:25 1025 30.27 854 25.22 5.1 41.2 40 -7.4 18.7
19:30 1024 30.24 854 25.22 5 40.9 40 -7.7 18.2
19:35 1024 30.24 854 25.22 5 41 41 -7.2 19.1
19:40 1025 30.27 854 25.22 5 41 40 -7.4 18.8
19:45 1025 30.27 854 25.22 5 41 40 -7.4 18.7
19:50 1025 30.27 854 25.22 4.9 40.9 44 -6.4 20.5
19:55 1025 30.27 854 25.22 4.8 40.6 44 -6.4 20.4
20:00 1025 30.27 854 25.22 4.6 40.2 46 -6 21.2
20:05 1025 30.27 854 25.22 4.2 39.5 51 -5.1 22.8
20:10 1025 30.27 854 25.22 3.9 38.9 55 -4.3 24.2
20:15 1025 30.27 854 25.22 3.4 38.1 59 -3.9 24.9
20:20 1025 30.27 854 25.22 3.1 37.6 60 -3.9 25
20:25 1025 30.27 854 25.22 3 37.4 61 -3.7 25.3
20:30 1025 30.27 854 25.22 2.9 37.1 60 -4.1 24.6
20:35 1025 30.27 854 25.22 2.8 37 62 -3.8 25.1
20:40 1025 30.27 854 25.22 2.7 36.8 62 -3.8 25.1
20:45 1025 30.27 854 25.22 2.5 36.5 62 -4.2 24.5
20:50 1025 30.27 854 25.22 2.6 36.6 59 -4.6 23.8
20:55 1025 30.27 854 25.22 2.9 37.2 56 -5 23
21:00 1025 30.27 854 25.22 2.8 37.1 58 -4.7 23.5
21:05 1025 30.27 854 25.22 2.7 36.8 58 -4.7 23.5
21:10 1025 30.27 854 25.22 2.6 36.6 59 -4.7 23.6
21:15 1025 30.27 854 25.22 2.5 36.4 59 -4.8 23.4
21:20 1025 30.27 854 25.22 2.6 36.6 59 -4.7 23.5
21:25 1025 30.27 854 25.22 2.6 36.7 59 -4.7 23.5
21:30 1025 30.27 854 25.22 2.5 36.5 58 -4.9 23.1
21:35 1025 30.27 854 25.22 2.5 36.5 58 -5 23
21:40 1025 30.27 854 25.22 2.5 36.5 58 -5 23.1
21:45 1025 30.27 854 25.22 2.6 36.6 56 -5.3 22.5
21:50 1025 30.27 854 25.22 2.7 36.8 57 -5.1 22.9
21:55 1025 30.27 854 25.22 2.6 36.6 56 -5.3 22.5
22:00 1025 30.27 854 25.22 2.6 36.6 56 -5.3 22.4
22:05 1025 30.27 854 25.22 2.6 36.7 57 -5.2 22.7
22:10 1025 30.27 854 25.22 2.3 36.1 57 -5.4 22.2
22:15 1025 30.27 855 25.25 2.2 35.9 57 -5.6 21.9
22:20 1025 30.27 855 25.25 2.2 35.9 55 -5.8 21.5
22:25 1025 30.27 855 25.25 2.2 36 54 -6 21.1
22:30 1025 30.27 855 25.25 2.3 36.1 54 -6.2 20.9
22:35 1025 30.27 855 25.25 2.4 36.3 53 -6.2 20.9
22:40 1025 30.27 855 25.25 2.3 36.1 55 -5.7 21.7
22:45 1025 30.27 855 25.25 2 35.6 56 -5.8 21.5
22:50 1025 30.27 854 25.22 1.9 35.4 56 -6.1 21
22:55 1025 30.27 854 25.22 1.8 35.2 55 -6.3 20.7
23:00 1025 30.27 854 25.22 1.9 35.5 53 -6.6 20.1
23:05 1025 30.27 854 25.22 2.1 35.8 53 -6.5 20.4
23:10 1025 30.27 854 25.22 2 35.6 54 -6.3 20.7
23:15 1025 30.27 854 25.22 1.8 35.2 56 -6 21.2
23:20 1025 30.27 854 25.22 1.5 34.7 58 -5.8 21.6
23:25 1025 30.27 854 25.22 1.4 34.4 58 -6.1 21
23:30 1025 30.27 854 25.22 1.5 34.7 57 -6 21.2
23:35 1025 30.27 854 25.22 1.7 35 57 -5.9 21.4
23:40 1025 30.27 854 25.22 1.7 35 58 -5.8 21.6
23:45 1025 30.27 854 25.22 1.7 35 59 -5.6 22
23:50 1025 30.27 854 25.22 1.5 34.7 60 -5.4 22.3
23:55 1025 30.27 854 25.22 1.3 34.4 60 -5.5 22
24:00 1025 30.27 854 25.22 1.1 34 63 -5.2 22.6